createdAt,value
2018-01-15T00:00:50.968Z,22.62
2018-01-15T00:01:50.938Z,22.51
2018-01-15T00:03:44.396Z,22.58
2018-01-15T00:04:44.306Z,22.55
2018-01-15T00:06:37.552Z,22.58
2018-01-15T00:07:37.537Z,22.43
2018-01-15T00:09:31.740Z,22.44
2018-01-15T00:10:31.637Z,22.48
2018-01-15T00:12:24.929Z,22.41
2018-01-15T00:13:24.844Z,22.46
2018-01-15T00:15:18.121Z,22.44
2018-01-15T00:16:18.025Z,22.37
2018-01-15T00:18:11.302Z,22.49
2018-01-15T00:19:11.202Z,22.34
2018-01-15T00:21:04.462Z,22.36
2018-01-15T00:22:04.345Z,22.34
2018-01-15T00:23:57.634Z,22.43
2018-01-15T00:24:57.551Z,22.33
2018-01-15T00:26:50.779Z,22.38
2018-01-15T00:27:50.680Z,22.43
2018-01-15T00:29:43.962Z,22.34
2018-01-15T00:30:43.880Z,22.34
2018-01-15T00:32:37.149Z,22.44
2018-01-15T00:33:37.043Z,22.40
2018-01-15T00:35:30.286Z,22.36
2018-01-15T00:36:30.198Z,22.34
2018-01-15T00:38:24.493Z,22.37
2018-01-15T00:39:24.400Z,22.33
2018-01-15T00:41:17.657Z,22.31
2018-01-15T00:42:17.576Z,22.25
2018-01-15T00:44:11.894Z,22.33
2018-01-15T00:45:11.778Z,22.28
2018-01-15T00:47:04.995Z,22.28
2018-01-15T00:48:04.908Z,22.22
2018-01-15T00:49:58.204Z,22.28
2018-01-15T00:50:58.109Z,22.28
2018-01-15T00:52:51.364Z,22.22
2018-01-15T00:53:51.274Z,22.22
2018-01-15T00:55:44.562Z,22.22
2018-01-15T00:56:44.462Z,22.16
2018-01-15T00:58:37.730Z,22.16
2018-01-15T00:59:37.627Z,22.19
2018-01-15T01:01:30.928Z,22.18
2018-01-15T01:02:30.813Z,22.19
2018-01-15T01:04:24.080Z,22.19
2018-01-15T01:05:23.995Z,22.25
2018-01-15T01:07:17.246Z,22.18
2018-01-15T01:08:17.132Z,22.13
2018-01-15T01:10:10.437Z,22.19
2018-01-15T01:11:10.350Z,22.13
2018-01-15T01:13:04.614Z,22.13
2018-01-15T01:14:04.518Z,22.06
2018-01-15T01:15:57.782Z,22.04
2018-01-15T01:16:57.697Z,22.00
2018-01-15T01:18:50.959Z,22.07
2018-01-15T01:19:50.847Z,22.06
2018-01-15T01:21:44.095Z,22.01
2018-01-15T01:22:44.011Z,22.09
2018-01-15T01:24:38.316Z,22.00
2018-01-15T01:25:38.218Z,22.04
2018-01-15T01:27:31.469Z,22.00
2018-01-15T01:28:31.369Z,22.03
2018-01-15T01:30:24.642Z,22.04
2018-01-15T01:31:24.539Z,22.04
2018-01-15T01:33:17.787Z,21.98
2018-01-15T01:34:17.700Z,22.04
2018-01-15T01:36:12.002Z,22.04
2018-01-15T01:37:11.904Z,22.01
2018-01-15T01:39:05.151Z,22.04
2018-01-15T01:40:05.068Z,22.03
2018-01-15T01:41:58.342Z,22.04
2018-01-15T01:42:58.233Z,22.00
2018-01-15T01:44:51.488Z,21.97
2018-01-15T01:45:51.404Z,22.01
2018-01-15T01:47:44.673Z,22.00
2018-01-15T01:48:44.577Z,21.97
2018-01-15T01:50:37.816Z,22.01
2018-01-15T01:51:37.726Z,22.06
2018-01-15T01:53:31.064Z,21.98
2018-01-15T01:54:30.922Z,21.98
2018-01-15T01:56:24.235Z,22.07
2018-01-15T01:57:24.153Z,21.96
2018-01-15T01:59:17.466Z,21.98
2018-01-15T02:00:17.364Z,22.06
2018-01-15T02:02:11.638Z,21.97
2018-01-15T02:03:11.534Z,22.04
2018-01-15T02:05:04.825Z,22.01
2018-01-15T02:06:04.732Z,22.03
2018-01-15T02:07:57.998Z,22.04
2018-01-15T02:08:57.920Z,21.94
2018-01-15T02:10:51.195Z,22.03
2018-01-15T02:11:51.092Z,22.01
2018-01-15T02:13:45.345Z,21.96
2018-01-15T02:14:45.264Z,21.98
2018-01-15T02:16:38.498Z,21.97
2018-01-15T02:17:38.417Z,21.98
2018-01-15T02:19:31.655Z,22.03
2018-01-15T02:20:31.572Z,21.94
2018-01-15T02:22:25.892Z,21.94
2018-01-15T02:23:25.796Z,22.00
2018-01-15T02:25:19.037Z,21.94
2018-01-15T02:26:18.956Z,21.97
2018-01-15T02:28:12.338Z,21.94
2018-01-15T02:29:12.159Z,21.82
2018-01-15T02:31:05.408Z,21.82
2018-01-15T02:32:05.332Z,21.94
2018-01-15T02:33:58.576Z,21.82
2018-01-15T02:34:58.476Z,21.96
2018-01-15T02:36:51.728Z,21.78
2018-01-15T02:37:51.654Z,21.88
2018-01-15T02:39:44.911Z,21.84
2018-01-15T02:40:44.862Z,21.90
2018-01-15T02:42:38.056Z,21.96
2018-01-15T02:43:37.985Z,21.81
2018-01-15T02:45:31.291Z,21.84
2018-01-15T02:46:31.153Z,21.84
2018-01-15T02:48:24.421Z,21.82
2018-01-15T02:49:24.319Z,21.90
2018-01-15T02:51:18.603Z,21.82
2018-01-15T02:52:18.505Z,21.82
2018-01-15T02:54:11.826Z,21.84
2018-01-15T02:55:11.739Z,21.84
2018-01-15T02:57:05.006Z,21.81
2018-01-15T02:58:04.874Z,21.85
2018-01-15T02:59:58.167Z,21.82
2018-01-15T03:00:58.075Z,21.77
2018-01-15T03:02:52.377Z,21.84
2018-01-15T03:03:52.250Z,21.74
2018-01-15T03:05:45.543Z,21.75
2018-01-15T03:06:45.416Z,21.71
2018-01-15T03:08:38.719Z,21.75
2018-01-15T03:09:38.611Z,21.75
2018-01-15T03:11:31.874Z,21.80
2018-01-15T03:12:31.784Z,21.84
2018-01-15T03:14:25.059Z,21.81
2018-01-15T03:15:24.959Z,21.75
2018-01-15T03:17:18.185Z,21.77
2018-01-15T03:18:18.101Z,21.80
2018-01-15T03:20:11.402Z,21.81
2018-01-15T03:21:11.263Z,21.73
2018-01-15T03:23:04.529Z,21.78
2018-01-15T03:24:04.420Z,21.71
2018-01-15T03:25:57.730Z,21.82
2018-01-15T03:26:57.623Z,21.80
2018-01-15T03:28:51.916Z,21.78
2018-01-15T03:29:51.806Z,21.80
2018-01-15T03:31:45.105Z,21.74
2018-01-15T03:32:45.004Z,21.78
2018-01-15T03:34:39.245Z,21.77
2018-01-15T03:35:39.160Z,21.73
2018-01-15T03:37:32.453Z,21.80
2018-01-15T03:38:32.332Z,21.82
2018-01-15T03:40:25.689Z,21.71
2018-01-15T03:41:25.500Z,21.74
2018-01-15T03:43:18.773Z,21.80
2018-01-15T03:44:18.668Z,21.71
2018-01-15T03:46:11.923Z,21.78
2018-01-15T03:47:11.845Z,21.81
2018-01-15T03:49:05.109Z,21.69
2018-01-15T03:50:05.026Z,21.84
2018-01-15T03:51:59.290Z,21.82
2018-01-15T03:52:59.199Z,21.71
2018-01-15T03:54:52.535Z,21.82
2018-01-15T03:55:52.417Z,21.77
2018-01-15T03:57:45.727Z,21.80
2018-01-15T03:58:45.637Z,21.81
2018-01-15T04:00:39.960Z,21.81
2018-01-15T04:01:39.849Z,21.77
2018-01-15T04:03:33.106Z,21.74
2018-01-15T04:04:33.014Z,21.74
2018-01-15T04:06:26.273Z,21.73
2018-01-15T04:07:26.159Z,21.69
2018-01-15T04:09:19.412Z,21.77
2018-01-15T04:10:19.324Z,21.77
2018-01-15T04:12:12.592Z,21.77
2018-01-15T04:13:12.511Z,21.66
2018-01-15T04:15:05.774Z,21.80
2018-01-15T04:16:05.696Z,21.69
2018-01-15T04:17:58.987Z,21.82
2018-01-15T04:18:58.892Z,21.69
2018-01-15T04:20:52.156Z,21.80
2018-01-15T04:21:52.077Z,21.80
2018-01-15T04:23:45.361Z,21.77
2018-01-15T04:24:45.244Z,21.75
2018-01-15T04:26:38.461Z,21.73
2018-01-15T04:27:38.372Z,21.69
2018-01-15T04:29:31.671Z,21.71
2018-01-15T04:30:31.570Z,21.67
2018-01-15T04:32:25.826Z,21.75
2018-01-15T04:33:25.752Z,21.88
2018-01-15T04:35:19.060Z,22.00
2018-01-15T04:36:18.962Z,22.12
2018-01-15T04:38:12.207Z,22.04
2018-01-15T04:39:12.140Z,22.12
2018-01-15T04:41:05.398Z,22.15
2018-01-15T04:42:05.302Z,22.12
2018-01-15T04:43:58.570Z,22.12
2018-01-15T04:44:58.486Z,22.07
2018-01-15T04:46:51.738Z,22.07
2018-01-15T04:47:51.636Z,22.11
2018-01-15T04:49:44.887Z,22.11
2018-01-15T04:50:44.798Z,22.23
2018-01-15T04:52:38.069Z,22.18
2018-01-15T04:53:37.956Z,22.19
2018-01-15T04:55:32.235Z,22.25
2018-01-15T04:56:32.138Z,22.31
2018-01-15T04:58:26.383Z,22.38
2018-01-15T04:59:26.286Z,22.38
2018-01-15T05:01:19.664Z,22.40
2018-01-15T05:02:19.485Z,22.37
2018-01-15T05:04:12.831Z,22.38
2018-01-15T05:05:12.664Z,22.31
2018-01-15T05:07:05.879Z,22.31
2018-01-15T05:08:05.796Z,22.33
2018-01-15T05:09:59.105Z,22.38
2018-01-15T05:10:58.988Z,22.22
2018-01-15T05:12:52.330Z,22.11
2018-01-15T05:13:52.217Z,22.06
2018-01-15T05:15:46.479Z,22.01
2018-01-15T05:16:46.376Z,22.04
2018-01-15T05:18:40.648Z,22.00
2018-01-15T05:19:40.573Z,22.00
2018-01-15T05:21:34.872Z,21.97
2018-01-15T05:22:34.741Z,22.06
2018-01-15T05:24:28.012Z,22.00
2018-01-15T05:25:27.932Z,21.96
2018-01-15T05:27:21.742Z,21.96
2018-01-15T05:28:21.156Z,21.97
2018-01-15T05:30:14.392Z,21.97
2018-01-15T05:31:14.284Z,22.01
2018-01-15T05:33:07.601Z,22.04
2018-01-15T05:34:07.503Z,21.98
2018-01-15T05:36:01.808Z,22.06
2018-01-15T05:37:01.666Z,22.03
2018-01-15T05:38:54.948Z,21.97
2018-01-15T05:39:54.827Z,21.98
2018-01-15T05:41:48.099Z,22.00
2018-01-15T05:42:48.008Z,22.03
2018-01-15T05:44:41.295Z,21.97
2018-01-15T05:45:41.181Z,21.94
2018-01-15T05:47:34.445Z,21.98
2018-01-15T05:48:34.353Z,21.97
2018-01-15T05:50:27.675Z,21.96
2018-01-15T05:51:27.547Z,21.98
2018-01-15T05:53:20.822Z,22.00
2018-01-15T05:54:20.737Z,21.82
2018-01-15T05:56:14.079Z,21.96
2018-01-15T05:57:13.955Z,21.94
2018-01-15T05:59:07.222Z,22.03
2018-01-15T06:00:07.135Z,22.01
2018-01-15T06:02:00.428Z,22.00
2018-01-15T06:03:00.323Z,21.96
2018-01-15T06:04:53.596Z,21.96
2018-01-15T06:05:53.476Z,21.94
2018-01-15T06:07:46.840Z,21.93
2018-01-15T06:08:46.731Z,21.93
2018-01-15T06:10:40.563Z,21.97
2018-01-15T06:11:39.891Z,21.94
2018-01-15T06:13:34.169Z,21.84
2018-01-15T06:14:34.036Z,21.80
2018-01-15T06:16:27.287Z,21.96
2018-01-15T06:17:27.220Z,21.94
2018-01-15T06:19:20.482Z,21.82
2018-01-15T06:20:20.374Z,21.84
2018-01-15T06:22:13.628Z,21.94
2018-01-15T06:23:13.543Z,21.90
2018-01-15T06:25:06.820Z,21.91
2018-01-15T06:26:06.702Z,21.96
2018-01-15T06:27:59.966Z,21.91
2018-01-15T06:28:59.885Z,21.90
2018-01-15T06:30:53.164Z,21.85
2018-01-15T06:31:53.067Z,21.93
2018-01-15T06:33:46.306Z,21.93
2018-01-15T06:34:46.245Z,21.93
2018-01-15T06:36:39.476Z,21.75
2018-01-15T06:37:39.365Z,21.77
2018-01-15T06:39:32.650Z,21.75
2018-01-15T06:40:32.574Z,21.81
2018-01-15T06:42:25.844Z,21.88
2018-01-15T06:43:25.744Z,21.84
2018-01-15T06:45:19.006Z,21.88
2018-01-15T06:46:18.925Z,21.85
2018-01-15T06:48:12.207Z,21.77
2018-01-15T06:49:12.096Z,21.82
2018-01-15T06:51:05.386Z,21.84
2018-01-15T06:52:05.248Z,21.88
2018-01-15T06:53:59.538Z,21.80
2018-01-15T06:54:59.423Z,21.74
2018-01-15T06:56:53.661Z,21.81
2018-01-15T06:57:53.566Z,21.81
2018-01-15T06:59:46.873Z,21.82
2018-01-15T07:00:46.759Z,21.93
2018-01-15T07:02:41.097Z,21.77
2018-01-15T07:03:40.932Z,21.85
2018-01-15T07:05:34.216Z,21.90
2018-01-15T07:06:34.083Z,21.80
2018-01-15T07:08:28.339Z,21.82
2018-01-15T07:09:28.272Z,21.91
2018-01-15T07:11:21.542Z,21.84
2018-01-15T07:12:21.423Z,21.73
2018-01-15T07:14:14.665Z,21.84
2018-01-15T07:15:14.578Z,21.75
2018-01-15T07:17:07.849Z,21.90
2018-01-15T07:18:07.750Z,21.85
2018-01-15T07:20:01.012Z,21.88
2018-01-15T07:21:00.912Z,21.82
2018-01-15T07:22:54.208Z,21.84
2018-01-15T07:23:54.101Z,21.85
2018-01-15T07:25:47.369Z,21.90
2018-01-15T07:26:47.276Z,21.82
2018-01-15T07:28:40.555Z,21.82
2018-01-15T07:29:40.464Z,21.84
2018-01-15T07:31:33.727Z,21.74
2018-01-15T07:32:33.630Z,21.75
2018-01-15T07:34:26.934Z,21.85
2018-01-15T07:35:26.811Z,21.82
2018-01-15T07:37:20.046Z,21.75
2018-01-15T07:38:19.952Z,21.77
2018-01-15T07:40:14.250Z,21.74
2018-01-15T07:41:14.132Z,21.73
2018-01-15T07:43:07.423Z,21.78
2018-01-15T07:44:07.320Z,21.82
2018-01-15T07:46:00.598Z,21.74
2018-01-15T07:47:00.486Z,21.71
2018-01-15T07:48:53.772Z,21.75
2018-01-15T07:49:53.677Z,21.82
2018-01-15T07:51:47.991Z,21.77
2018-01-15T07:52:47.861Z,21.82
2018-01-15T07:54:41.129Z,21.88
2018-01-15T07:55:41.038Z,21.80
2018-01-15T07:57:35.862Z,21.77
2018-01-15T07:58:34.224Z,21.73
2018-01-15T08:00:27.492Z,21.84
2018-01-15T08:01:27.391Z,21.82
2018-01-15T08:03:21.708Z,21.75
2018-01-15T08:04:21.600Z,21.74
2018-01-15T08:06:14.896Z,21.73
2018-01-15T08:07:14.813Z,21.81
2018-01-15T08:09:08.106Z,21.81
2018-01-15T08:10:07.990Z,21.75
2018-01-15T08:12:01.278Z,21.77
2018-01-15T08:13:01.189Z,21.81
2018-01-15T08:14:54.517Z,21.75
2018-01-15T08:15:54.380Z,21.77
2018-01-15T08:17:47.666Z,21.73
2018-01-15T08:18:47.579Z,21.75
2018-01-15T08:20:40.855Z,21.75
2018-01-15T08:21:40.735Z,21.74
2018-01-15T08:23:33.995Z,21.74
2018-01-15T08:24:33.913Z,21.73
2018-01-15T08:26:28.150Z,21.77
2018-01-15T08:27:28.036Z,21.75
2018-01-15T08:29:21.309Z,21.73
2018-01-15T08:30:21.214Z,21.77
2018-01-15T08:32:14.542Z,21.82
2018-01-15T08:33:14.419Z,21.73
2018-01-15T08:35:08.694Z,21.73
2018-01-15T08:36:08.604Z,21.74
2018-01-15T08:38:01.914Z,21.74
2018-01-15T08:39:01.801Z,21.77
2018-01-15T08:40:55.044Z,21.69
2018-01-15T08:41:54.962Z,21.73
2018-01-15T08:43:48.285Z,21.80
2018-01-15T08:44:48.163Z,21.67
2018-01-15T08:46:41.385Z,21.77
2018-01-15T08:47:41.296Z,21.84
2018-01-15T08:49:35.562Z,21.93
2018-01-15T08:50:35.476Z,21.80
2018-01-15T08:52:28.709Z,21.91
2018-01-15T08:53:28.619Z,21.82
2018-01-15T08:55:22.900Z,21.81
2018-01-15T08:56:22.800Z,21.67
2018-01-15T08:58:17.053Z,21.75
2018-01-15T08:59:16.965Z,21.74
2018-01-15T09:01:10.294Z,21.69
2018-01-15T09:02:10.184Z,21.85
2018-01-15T09:04:03.427Z,21.78
2018-01-15T09:05:03.341Z,21.75
2018-01-15T09:06:56.626Z,21.82
2018-01-15T09:07:56.490Z,21.75
2018-01-15T09:09:49.751Z,21.73
2018-01-15T09:10:49.675Z,21.73
2018-01-15T09:12:42.950Z,21.78
2018-01-15T09:13:42.854Z,21.73
2018-01-15T09:15:36.133Z,21.75
2018-01-15T09:16:36.057Z,21.75
2018-01-15T09:18:30.343Z,21.75
2018-01-15T09:19:30.236Z,21.74
2018-01-15T09:21:23.503Z,21.77
2018-01-15T09:22:23.414Z,21.82
2018-01-15T09:24:17.799Z,21.88
2018-01-15T09:25:17.664Z,21.78
2018-01-15T09:27:10.874Z,21.78
2018-01-15T09:28:10.798Z,21.77
2018-01-15T09:30:04.075Z,21.80
2018-01-15T09:31:03.959Z,21.74
2018-01-15T09:32:57.276Z,21.75
2018-01-15T09:33:57.145Z,21.74
2018-01-15T09:35:50.435Z,21.74
2018-01-15T09:36:50.313Z,21.81
2018-01-15T09:38:44.580Z,21.78
2018-01-15T09:39:44.502Z,21.75
2018-01-15T09:41:37.775Z,21.84
2018-01-15T09:42:37.656Z,21.90
2018-01-15T09:44:30.904Z,21.84
2018-01-15T09:45:30.837Z,21.80
2018-01-15T09:47:24.098Z,21.88
2018-01-15T09:48:24.002Z,21.78
2018-01-15T09:50:18.278Z,21.78
2018-01-15T09:51:18.198Z,21.75
2018-01-15T09:53:12.517Z,21.80
2018-01-15T09:54:12.378Z,21.69
2018-01-15T09:56:08.132Z,21.73
2018-01-15T09:57:08.086Z,21.75
2018-01-15T09:59:01.450Z,21.73
2018-01-15T10:00:01.260Z,21.80
2018-01-15T10:01:55.513Z,21.75
2018-01-15T10:02:55.429Z,21.82
2018-01-15T10:04:49.712Z,21.71
2018-01-15T10:05:49.615Z,21.66
2018-01-15T10:07:42.860Z,21.77
2018-01-15T10:08:42.773Z,21.73
2018-01-15T10:10:36.112Z,21.69
2018-01-15T10:11:35.987Z,21.73
2018-01-15T10:13:29.253Z,21.71
2018-01-15T10:14:29.168Z,21.78
2018-01-15T10:16:23.427Z,21.75
2018-01-15T10:17:23.314Z,21.80
2018-01-15T10:19:17.609Z,21.77
2018-01-15T10:20:17.514Z,21.74
2018-01-15T10:22:10.774Z,21.67
2018-01-15T10:23:10.688Z,21.73
2018-01-15T10:25:04.041Z,21.73
2018-01-15T10:26:03.871Z,21.73
2018-01-15T10:27:57.151Z,21.67
2018-01-15T10:28:57.032Z,21.69
2018-01-15T10:30:50.315Z,21.71
2018-01-15T10:31:50.211Z,21.80
2018-01-15T10:33:43.496Z,21.80
2018-01-15T10:34:43.405Z,21.82
2018-01-15T10:36:36.608Z,21.81
2018-01-15T10:37:36.519Z,21.84
2018-01-15T10:39:30.791Z,21.71
2018-01-15T10:40:30.689Z,21.82
2018-01-15T10:42:23.950Z,21.75
2018-01-15T10:43:23.857Z,21.77
2018-01-15T10:45:17.148Z,21.82
2018-01-15T10:46:17.072Z,21.84
2018-01-15T10:48:10.325Z,21.82
2018-01-15T10:49:10.263Z,21.75
2018-01-15T10:51:03.502Z,21.71
2018-01-15T10:52:03.391Z,21.69
2018-01-15T10:53:56.691Z,21.65
2018-01-15T10:54:56.565Z,21.77
2018-01-15T10:56:49.835Z,21.73
2018-01-15T10:57:49.707Z,21.73
2018-01-15T10:59:43.001Z,21.81
2018-01-15T11:00:42.903Z,21.74
2018-01-15T11:02:36.175Z,21.67
2018-01-15T11:03:36.064Z,21.82
2018-01-15T11:05:29.332Z,21.66
2018-01-15T11:06:29.243Z,21.73
2018-01-15T11:08:22.534Z,21.69
2018-01-15T11:09:22.417Z,21.78
2018-01-15T11:11:15.671Z,21.69
2018-01-15T11:12:15.592Z,21.78
2018-01-15T11:14:08.852Z,21.77
2018-01-15T11:15:08.757Z,21.77
2018-01-15T11:17:02.973Z,21.78
2018-01-15T11:18:02.891Z,21.65
2018-01-15T11:19:56.204Z,21.73
2018-01-15T11:20:56.080Z,21.73
2018-01-15T11:22:49.358Z,21.71
2018-01-15T11:23:49.268Z,21.73
2018-01-15T11:25:42.898Z,21.74
2018-01-15T11:26:42.450Z,21.65
2018-01-15T11:28:36.719Z,21.69
2018-01-15T11:29:36.642Z,21.81
2018-01-15T11:31:29.908Z,21.80
2018-01-15T11:32:29.788Z,21.75
2018-01-15T11:34:23.053Z,21.74
2018-01-15T11:35:22.967Z,21.80
2018-01-15T11:37:16.241Z,21.66
2018-01-15T11:38:16.133Z,21.74
2018-01-15T11:40:09.388Z,21.69
2018-01-15T11:41:09.308Z,21.77
2018-01-15T11:43:02.648Z,21.73
2018-01-15T11:44:02.516Z,21.74
2018-01-15T11:45:56.770Z,21.80
2018-01-15T11:46:56.696Z,21.77
2018-01-15T11:48:49.973Z,21.74
2018-01-15T11:49:49.883Z,21.75
2018-01-15T11:51:44.156Z,21.82
2018-01-15T11:52:44.051Z,21.74
2018-01-15T11:54:37.621Z,21.71
2018-01-15T11:55:37.236Z,21.69
2018-01-15T11:57:30.499Z,21.74
2018-01-15T11:58:30.413Z,21.80
2018-01-15T12:00:23.698Z,21.77
2018-01-15T12:01:23.584Z,21.69
2018-01-15T12:03:16.856Z,21.71
2018-01-15T12:04:16.775Z,21.71
2018-01-15T12:06:11.047Z,21.73
2018-01-15T12:07:10.954Z,21.69
2018-01-15T12:09:05.239Z,21.77
2018-01-15T12:10:05.139Z,21.75
2018-01-15T12:11:58.514Z,21.73
2018-01-15T12:12:58.317Z,21.78
2018-01-15T12:14:52.623Z,21.69
2018-01-15T12:15:52.504Z,21.77
2018-01-15T12:17:45.769Z,21.81
2018-01-15T12:18:45.678Z,21.78
2018-01-15T12:20:38.909Z,21.71
2018-01-15T12:21:38.823Z,21.77
2018-01-15T12:23:32.073Z,21.77
2018-01-15T12:24:31.995Z,21.74
2018-01-15T12:26:25.207Z,21.78
2018-01-15T12:27:25.118Z,21.74
2018-01-15T12:29:19.387Z,21.73
2018-01-15T12:30:19.278Z,21.73
2018-01-15T12:32:12.543Z,21.69
2018-01-15T12:33:12.469Z,21.69
2018-01-15T12:35:05.764Z,21.67
2018-01-15T12:36:05.643Z,21.73
2018-01-15T12:37:59.944Z,21.74
2018-01-15T12:38:59.827Z,21.71
2018-01-15T12:40:53.102Z,21.69
2018-01-15T12:41:53.024Z,21.59
2018-01-15T12:43:47.254Z,21.66
2018-01-15T12:44:47.168Z,21.65
2018-01-15T12:46:40.427Z,21.63
2018-01-15T12:47:40.330Z,21.69
2018-01-15T12:49:33.621Z,21.69
2018-01-15T12:50:33.527Z,21.69
2018-01-15T12:52:26.826Z,21.65
2018-01-15T12:53:26.706Z,21.69
2018-01-15T12:55:19.985Z,21.71
2018-01-15T12:56:19.919Z,21.67
2018-01-15T12:58:13.166Z,21.65
2018-01-15T12:59:13.069Z,21.69
2018-01-15T13:01:06.375Z,21.66
2018-01-15T13:02:06.288Z,21.63
2018-01-15T13:03:59.572Z,21.69
2018-01-15T13:04:59.444Z,21.67
2018-01-15T13:06:52.661Z,21.73
2018-01-15T13:07:52.578Z,21.56
2018-01-15T13:09:45.874Z,21.63
2018-01-15T13:10:45.759Z,21.59
2018-01-15T13:12:40.027Z,21.62
2018-01-15T13:13:39.927Z,21.60
2018-01-15T13:15:33.212Z,21.56
2018-01-15T13:16:33.093Z,21.59
2018-01-15T13:18:26.365Z,21.56
2018-01-15T13:19:26.256Z,21.56
2018-01-15T13:21:20.549Z,21.56
2018-01-15T13:22:20.444Z,21.53
2018-01-15T13:24:13.689Z,21.63
2018-01-15T13:25:13.606Z,21.60
2018-01-15T13:27:06.867Z,21.58
2018-01-15T13:28:06.750Z,21.63
2018-01-15T13:30:00.096Z,21.60
2018-01-15T13:30:59.913Z,21.60
2018-01-15T13:32:53.179Z,21.53
2018-01-15T13:33:53.062Z,21.58
2018-01-15T13:35:47.297Z,21.56
2018-01-15T13:36:47.238Z,21.56
2018-01-15T13:38:40.506Z,21.58
2018-01-15T13:39:40.403Z,21.55
2018-01-15T13:41:33.688Z,21.55
2018-01-15T13:42:33.590Z,21.60
2018-01-15T13:44:26.875Z,21.51
2018-01-15T13:45:26.752Z,21.56
2018-01-15T13:47:19.984Z,21.51
2018-01-15T13:48:19.894Z,21.55
2018-01-15T13:50:13.178Z,21.55
2018-01-15T13:51:13.069Z,21.56
2018-01-15T13:53:07.351Z,21.55
2018-01-15T13:54:07.264Z,21.56
2018-01-15T13:56:00.557Z,21.51
2018-01-15T13:57:00.432Z,21.53
2018-01-15T13:58:53.702Z,21.63
2018-01-15T13:59:53.622Z,21.66
2018-01-15T14:01:46.894Z,21.59
2018-01-15T14:02:46.773Z,21.65
2018-01-15T14:04:40.027Z,21.66
2018-01-15T14:05:39.935Z,21.66
2018-01-15T14:07:34.247Z,21.60
2018-01-15T14:08:34.122Z,21.62
2018-01-15T14:10:28.411Z,21.55
2018-01-15T14:11:28.322Z,21.60
2018-01-15T14:13:21.576Z,21.60
2018-01-15T14:14:21.468Z,21.58
2018-01-15T14:16:14.772Z,21.59
2018-01-15T14:17:14.677Z,21.53
2018-01-15T14:19:07.982Z,21.55
2018-01-15T14:20:07.861Z,21.50
2018-01-15T14:22:02.128Z,21.56
2018-01-15T14:23:02.061Z,21.55
2018-01-15T14:24:55.298Z,21.59
2018-01-15T14:25:55.199Z,21.50
2018-01-15T14:27:48.473Z,21.45
2018-01-15T14:28:48.397Z,21.55
2018-01-15T14:30:42.668Z,21.55
2018-01-15T14:31:42.548Z,21.56
2018-01-15T14:33:35.816Z,21.59
2018-01-15T14:34:35.767Z,21.60
2018-01-15T14:36:28.997Z,21.56
2018-01-15T14:37:28.890Z,21.60
2018-01-15T14:39:22.150Z,21.55
2018-01-15T14:40:22.054Z,21.55
2018-01-15T14:42:15.344Z,21.51
2018-01-15T14:43:15.254Z,21.55
2018-01-15T14:45:08.520Z,21.53
2018-01-15T14:46:08.415Z,21.56
2018-01-15T14:48:01.710Z,21.55
2018-01-15T14:49:01.586Z,21.55
2018-01-15T14:50:54.943Z,21.60
2018-01-15T14:51:54.786Z,21.55
2018-01-15T14:53:48.075Z,21.58
2018-01-15T14:54:47.968Z,21.56
2018-01-15T14:56:41.199Z,21.51
2018-01-15T14:57:41.113Z,21.45
2018-01-15T14:59:34.408Z,21.55
2018-01-15T15:00:34.320Z,21.50
2018-01-15T15:02:27.590Z,21.51
2018-01-15T15:03:27.504Z,21.51
2018-01-15T15:05:21.781Z,21.58
2018-01-15T15:06:21.671Z,21.55
2018-01-15T15:08:14.916Z,21.51
2018-01-15T15:09:14.836Z,21.55
2018-01-15T15:11:08.127Z,21.56
2018-01-15T15:12:08.027Z,21.58
2018-01-15T15:14:01.297Z,21.62
2018-01-15T15:15:01.360Z,21.48
2018-01-15T15:16:54.441Z,21.48
2018-01-15T15:17:54.325Z,21.51
2018-01-15T15:19:47.589Z,21.51
2018-01-15T15:20:47.505Z,21.51
2018-01-15T15:22:40.823Z,21.55
2018-01-15T15:23:40.702Z,21.55
2018-01-15T15:25:33.959Z,21.63
2018-01-15T15:26:33.887Z,21.59
2018-01-15T15:28:27.170Z,21.58
2018-01-15T15:29:27.044Z,21.58
2018-01-15T15:31:20.309Z,21.58
2018-01-15T15:32:20.228Z,21.43
2018-01-15T15:34:13.493Z,21.56
2018-01-15T15:35:13.403Z,21.55
2018-01-15T15:37:06.628Z,21.58
2018-01-15T15:38:06.539Z,21.58
2018-01-15T15:39:59.836Z,21.58
2018-01-15T15:40:59.706Z,21.56
2018-01-15T15:42:53.961Z,21.53
2018-01-15T15:43:53.873Z,21.58
2018-01-15T15:45:47.404Z,21.58
2018-01-15T15:46:47.035Z,21.55
2018-01-15T15:48:40.311Z,21.56
2018-01-15T15:49:40.250Z,21.51
2018-01-15T15:51:33.548Z,21.53
2018-01-15T15:52:33.452Z,21.56
2018-01-15T15:54:26.706Z,21.56
2018-01-15T15:55:26.659Z,21.56
2018-01-15T15:57:19.875Z,21.59
2018-01-15T15:58:19.760Z,21.41
2018-01-15T16:00:13.056Z,21.44
2018-01-15T16:01:12.951Z,21.44
2018-01-15T16:03:06.246Z,21.43
2018-01-15T16:04:06.141Z,21.40
2018-01-15T16:05:59.400Z,21.45
2018-01-15T16:06:59.311Z,21.50
2018-01-15T16:08:52.583Z,21.48
2018-01-15T16:09:52.493Z,21.47
2018-01-15T16:11:45.762Z,21.48
2018-01-15T16:12:45.676Z,21.43
2018-01-15T16:14:38.958Z,21.51
2018-01-15T16:15:38.853Z,21.58
2018-01-15T16:17:32.100Z,21.58
2018-01-15T16:18:32.015Z,21.53
2018-01-15T16:20:26.342Z,21.45
2018-01-15T16:21:26.237Z,21.51
2018-01-15T16:23:19.495Z,21.53
2018-01-15T16:24:19.407Z,21.50
2018-01-15T16:26:13.672Z,21.51
2018-01-15T16:27:13.574Z,21.59
2018-01-15T16:29:06.863Z,21.56
2018-01-15T16:30:06.771Z,21.45
2018-01-15T16:32:00.064Z,21.50
2018-01-15T16:32:59.949Z,21.41
2018-01-15T16:34:54.240Z,21.43
2018-01-15T16:35:54.138Z,21.44
2018-01-15T16:37:47.439Z,21.43
2018-01-15T16:38:47.321Z,21.41
2018-01-15T16:40:41.591Z,21.43
2018-01-15T16:41:41.500Z,21.41
2018-01-15T16:43:34.759Z,21.48
2018-01-15T16:44:34.657Z,21.48
2018-01-15T16:46:28.907Z,21.56
2018-01-15T16:47:28.808Z,21.55
2018-01-15T16:49:22.082Z,21.63
2018-01-15T16:50:22.030Z,21.63
2018-01-15T16:52:15.408Z,21.71
2018-01-15T16:53:15.319Z,21.62
2018-01-15T16:55:08.584Z,21.74
2018-01-15T16:56:08.483Z,21.71
2018-01-15T16:58:01.722Z,21.74
2018-01-15T16:59:01.635Z,21.77
2018-01-15T17:00:54.937Z,21.74
2018-01-15T17:01:54.830Z,21.73
2018-01-15T17:03:48.301Z,21.82
2018-01-15T17:04:48.096Z,21.81
2018-01-15T17:06:41.343Z,21.77
2018-01-15T17:07:41.213Z,21.82
2018-01-15T17:09:34.503Z,21.81
2018-01-15T17:10:34.412Z,21.77
2018-01-15T17:12:27.732Z,21.78
2018-01-15T17:13:27.611Z,21.82
2018-01-15T17:15:20.870Z,21.80
2018-01-15T17:16:20.775Z,21.93
2018-01-15T17:18:14.060Z,21.85
2018-01-15T17:19:13.960Z,21.84
2018-01-15T17:21:07.219Z,21.82
2018-01-15T17:22:07.111Z,21.78
2018-01-15T17:24:00.423Z,21.78
2018-01-15T17:25:00.294Z,21.80
2018-01-15T17:26:53.542Z,21.74
2018-01-15T17:27:53.436Z,21.82
2018-01-15T17:29:46.793Z,21.88
2018-01-15T17:30:46.688Z,21.80
2018-01-15T17:32:39.984Z,21.77
2018-01-15T17:33:39.895Z,21.75
2018-01-15T17:35:33.216Z,21.67
2018-01-15T17:36:33.109Z,21.69
2018-01-15T17:38:26.385Z,21.69
2018-01-15T17:39:26.299Z,21.65
2018-01-15T17:41:19.614Z,21.59
2018-01-15T17:42:19.478Z,21.60
2018-01-15T17:44:13.784Z,21.56
2018-01-15T17:45:13.655Z,21.50
2018-01-15T17:47:06.906Z,21.58
2018-01-15T17:48:06.786Z,21.58
2018-01-15T17:50:00.083Z,21.44
2018-01-15T17:51:00.024Z,21.40
2018-01-15T17:52:53.253Z,21.50
2018-01-15T17:53:53.157Z,21.47
2018-01-15T17:55:47.439Z,21.48
2018-01-15T17:56:47.351Z,21.50
2018-01-15T17:58:40.656Z,21.47
2018-01-15T17:59:40.531Z,21.47
2018-01-15T18:01:33.786Z,21.41
2018-01-15T18:02:33.710Z,21.38
2018-01-15T18:04:27.028Z,21.45
2018-01-15T18:05:26.922Z,21.43
2018-01-15T18:07:20.135Z,21.26
2018-01-15T18:08:20.052Z,21.37
2018-01-15T18:10:14.353Z,21.32
2018-01-15T18:11:14.261Z,21.35
2018-01-15T18:13:07.541Z,21.29
2018-01-15T18:14:07.442Z,21.25
2018-01-15T18:16:00.758Z,21.28
2018-01-15T18:17:00.642Z,21.23
2018-01-15T18:18:53.931Z,21.28
2018-01-15T18:19:53.849Z,21.30
2018-01-15T18:21:47.143Z,21.34
2018-01-15T18:22:47.014Z,21.30
2018-01-15T18:24:40.273Z,21.34
2018-01-15T18:25:40.177Z,21.29
2018-01-15T18:27:33.465Z,21.29
2018-01-15T18:28:33.361Z,21.29
2018-01-15T18:30:26.616Z,21.35
2018-01-15T18:31:26.535Z,21.28
2018-01-15T18:33:19.813Z,21.25
2018-01-15T18:34:19.693Z,21.25
2018-01-15T18:36:12.950Z,21.11